createdAt,value
2023-09-24T00:01:07.812Z,58.90
2023-09-24T00:03:34.972Z,58.80
2023-09-24T00:06:08.103Z,58.90
2023-09-24T00:08:35.097Z,58.80
2023-09-24T00:11:03.867Z,58.80
2023-09-24T00:13:31.322Z,58.80
2023-09-24T00:16:05.877Z,58.90
2023-09-24T00:18:37.179Z,58.80
2023-09-24T00:21:04.928Z,58.80
2023-09-24T00:23:32.109Z,58.80
2023-09-24T00:25:59.267Z,58.80
2023-09-24T00:28:26.471Z,58.80
2023-09-24T00:30:53.828Z,58.80
2023-09-24T00:33:22.965Z,58.70
2023-09-24T00:35:50.167Z,58.70
2023-09-24T00:38:18.142Z,58.70
2023-09-24T00:40:45.456Z,58.70
2023-09-24T00:43:27.554Z,58.70
2023-09-24T00:45:55.346Z,58.60
2023-09-24T00:48:24.097Z,58.60
2023-09-24T00:50:51.189Z,58.60
2023-09-24T00:53:18.161Z,58.50
2023-09-24T00:55:45.566Z,58.50
2023-09-24T00:58:12.602Z,58.50
2023-09-24T01:00:39.755Z,58.40
2023-09-24T01:03:08.022Z,58.40
2023-09-24T01:05:35.947Z,58.40
2023-09-24T01:08:03.310Z,58.40
2023-09-24T01:10:30.278Z,58.40
2023-09-24T01:13:00.637Z,58.40
2023-09-24T01:15:28.728Z,58.40
2023-09-24T01:17:55.804Z,58.40
2023-09-24T01:20:23.959Z,58.40
2023-09-24T01:22:51.607Z,58.40
2023-09-24T01:25:21.912Z,58.30
2023-09-24T01:27:49.992Z,58.40
2023-09-24T01:30:17.197Z,58.40
2023-09-24T01:32:44.460Z,58.40
2023-09-24T01:35:12.377Z,58.40
2023-09-24T01:37:40.279Z,58.40
2023-09-24T01:40:23.145Z,58.30
2023-09-24T01:42:50.116Z,58.40
2023-09-24T01:45:18.094Z,58.40
2023-09-24T01:47:51.666Z,58.30
2023-09-24T01:50:19.236Z,58.30
2023-09-24T01:52:47.052Z,58.40
2023-09-24T01:55:17.227Z,58.40
2023-09-24T01:57:45.160Z,58.30
2023-09-24T02:00:25.138Z,58.90
2023-09-24T02:02:52.917Z,58.30
2023-09-24T02:05:20.800Z,58.30
2023-09-24T02:07:50.439Z,58.30
2023-09-24T02:10:21.213Z,58.20
2023-09-24T02:12:48.507Z,58.20
2023-09-24T02:15:19.536Z,58.10
2023-09-24T02:17:49.307Z,58.10
2023-09-24T02:20:34.145Z,58.00
2023-09-24T02:23:02.431Z,58.00
2023-09-24T02:25:37.083Z,58.00
2023-09-24T02:28:04.380Z,57.90
2023-09-24T02:30:32.853Z,57.90
2023-09-24T02:33:01.441Z,57.90
2023-09-24T02:35:28.899Z,57.90
2023-09-24T02:37:56.375Z,57.80
2023-09-24T02:40:27.537Z,57.90
2023-09-24T02:42:55.737Z,57.80
2023-09-24T02:45:22.732Z,57.90
2023-09-24T02:47:50.948Z,57.90
2023-09-24T02:50:18.933Z,57.90
2023-09-24T02:52:47.258Z,57.90
2023-09-24T02:55:17.839Z,57.90
2023-09-24T02:57:45.538Z,57.90
2023-09-24T03:00:20.967Z,57.90
2023-09-24T03:02:49.134Z,57.90
2023-09-24T03:05:21.668Z,57.90
2023-09-24T03:07:51.597Z,57.80
2023-09-24T03:10:20.016Z,57.80
2023-09-24T03:12:47.759Z,57.90
2023-09-24T03:15:15.074Z,57.80
2023-09-24T03:17:43.272Z,57.90
2023-09-24T03:20:18.602Z,57.90
2023-09-24T03:22:49.995Z,57.90
2023-09-24T03:25:18.083Z,57.90
2023-09-24T03:27:45.784Z,57.90
2023-09-24T03:30:15.298Z,57.80
2023-09-24T03:32:43.215Z,57.80
2023-09-24T03:35:11.582Z,57.70
2023-09-24T03:37:39.307Z,57.70
2023-09-24T03:40:07.308Z,57.60
2023-09-24T03:42:35.248Z,57.60
2023-09-24T03:45:02.484Z,57.60
2023-09-24T03:47:29.620Z,57.50
2023-09-24T03:49:56.628Z,57.50
2023-09-24T03:52:23.662Z,57.50
2023-09-24T03:54:50.626Z,57.50
2023-09-24T03:57:17.593Z,57.50
2023-09-24T03:59:44.917Z,57.60
2023-09-24T04:02:13.163Z,57.60
2023-09-24T04:04:40.284Z,57.60
2023-09-24T04:07:07.933Z,57.60
2023-09-24T04:09:34.917Z,57.60
2023-09-24T04:12:01.894Z,57.60
2023-09-24T04:14:29.288Z,57.60
2023-09-24T04:16:57.742Z,57.60
2023-09-24T04:19:27.766Z,57.60
2023-09-24T04:21:54.919Z,57.60
2023-09-24T04:24:22.098Z,57.60
2023-09-24T04:26:49.396Z,57.60
2023-09-24T04:29:19.923Z,57.60
2023-09-24T04:31:46.949Z,57.60
2023-09-24T04:34:14.600Z,57.60
2023-09-24T04:36:42.298Z,57.50
2023-09-24T04:39:13.260Z,57.60
2023-09-24T04:41:41.638Z,57.50
2023-09-24T04:44:09.102Z,57.60
2023-09-24T04:46:36.372Z,57.80
2023-09-24T04:49:07.218Z,57.60
2023-09-24T04:51:35.993Z,56.20
2023-09-24T04:54:04.812Z,55.10
2023-09-24T04:56:31.921Z,53.60
2023-09-24T04:58:59.152Z,52.60
2023-09-24T05:01:26.103Z,51.60
2023-09-24T05:03:53.440Z,51.30
2023-09-24T05:06:20.899Z,51.60
2023-09-24T05:08:48.704Z,52.80
2023-09-24T05:11:15.678Z,51.50
2023-09-24T05:13:42.673Z,53.70
2023-09-24T05:16:09.958Z,53.80
2023-09-24T05:18:37.444Z,55.40
2023-09-24T05:21:04.860Z,52.00
2023-09-24T05:23:31.964Z,53.50
2023-09-24T05:25:58.936Z,54.60
2023-09-24T05:28:25.917Z,53.30
2023-09-24T05:30:54.296Z,53.30
2023-09-24T05:33:21.583Z,53.80
2023-09-24T05:35:53.378Z,54.70
2023-09-24T05:38:20.984Z,53.00
2023-09-24T05:40:48.429Z,54.10
2023-09-24T05:43:15.742Z,56.30
2023-09-24T05:45:49.350Z,54.70
2023-09-24T05:48:17.010Z,54.70
2023-09-24T05:50:44.917Z,54.60
2023-09-24T05:53:12.417Z,54.30
2023-09-24T05:55:39.695Z,53.60
2023-09-24T05:58:09.801Z,55.50
2023-09-24T06:00:37.329Z,55.00
2023-09-24T06:03:04.564Z,53.80
2023-09-24T06:05:32.226Z,54.50
2023-09-24T06:07:59.241Z,55.00
2023-09-24T06:10:26.332Z,54.50
2023-09-24T06:12:54.349Z,54.10
2023-09-24T06:15:21.331Z,54.90
2023-09-24T06:17:50.709Z,55.40
2023-09-24T06:20:18.165Z,54.30
2023-09-24T06:22:47.256Z,54.50
2023-09-24T06:25:14.246Z,55.20
2023-09-24T06:27:41.931Z,54.30
2023-09-24T06:30:09.968Z,54.60
2023-09-24T06:32:37.112Z,55.10
2023-09-24T06:35:04.645Z,56.60
2023-09-24T06:37:32.055Z,54.80
2023-09-24T06:39:59.105Z,54.90
2023-09-24T06:42:26.127Z,55.00
2023-09-24T06:44:53.490Z,54.00
2023-09-24T06:47:20.571Z,55.10
2023-09-24T06:49:53.712Z,55.30
2023-09-24T06:52:20.717Z,65.20
2023-09-24T06:54:47.690Z,69.10
2023-09-24T06:57:14.869Z,68.10
2023-09-24T06:59:41.884Z,67.00
2023-09-24T07:02:09.060Z,65.70
2023-09-24T07:04:36.120Z,64.50
2023-09-24T07:07:03.553Z,63.40
2023-09-24T07:09:30.673Z,62.50
2023-09-24T07:11:57.777Z,61.70
2023-09-24T07:14:24.807Z,61.00
2023-09-24T07:16:51.905Z,60.40
2023-09-24T07:19:19.974Z,59.90
2023-09-24T07:21:47.918Z,59.50
2023-09-24T07:24:14.853Z,59.00
2023-09-24T07:26:45.643Z,58.70
2023-09-24T07:29:12.829Z,58.40
2023-09-24T07:31:40.128Z,58.20
2023-09-24T07:34:08.279Z,57.80
2023-09-24T07:36:42.053Z,57.60
2023-09-24T07:39:12.516Z,57.50
2023-09-24T07:41:39.569Z,57.30
2023-09-24T07:44:06.745Z,57.10
2023-09-24T07:46:33.791Z,56.90
2023-09-24T07:49:04.839Z,56.70
2023-09-24T07:51:31.935Z,56.60
2023-09-24T07:53:59.046Z,56.40
2023-09-24T07:56:26.117Z,56.30
2023-09-24T07:58:54.000Z,56.00
2023-09-24T08:01:23.667Z,56.00
2023-09-24T08:03:50.883Z,55.80
2023-09-24T08:06:19.413Z,55.60
2023-09-24T08:08:55.068Z,55.50
2023-09-24T08:11:23.425Z,55.30
2023-09-24T08:13:53.444Z,55.20
2023-09-24T08:16:21.373Z,55.10
2023-09-24T08:18:50.364Z,55.10
2023-09-24T08:21:17.810Z,55.00
2023-09-24T08:23:44.905Z,63.00
2023-09-24T08:26:11.975Z,53.10
2023-09-24T08:28:38.935Z,45.80
2023-09-24T08:31:09.622Z,45.70
2023-09-24T08:33:36.716Z,46.30
2023-09-24T08:36:08.292Z,46.10
2023-09-24T08:38:35.376Z,48.00
2023-09-24T08:41:02.427Z,48.10
2023-09-24T08:43:31.562Z,48.60
2023-09-24T08:45:58.832Z,49.30
2023-09-24T08:48:26.015Z,50.00
2023-09-24T08:50:53.236Z,50.30
2023-09-24T08:53:20.803Z,50.40
2023-09-24T08:55:48.128Z,51.20
2023-09-24T08:58:15.130Z,51.30
2023-09-24T09:00:43.655Z,52.00
2023-09-24T09:03:10.883Z,51.80
2023-09-24T09:05:39.091Z,61.90
2023-09-24T09:08:06.340Z,63.60
2023-09-24T09:10:34.609Z,62.90
2023-09-24T09:13:05.919Z,61.90
2023-09-24T09:15:33.863Z,60.80
2023-09-24T09:18:01.993Z,59.90
2023-09-24T09:20:42.986Z,59.20
2023-09-24T09:23:14.453Z,58.60
2023-09-24T09:25:51.579Z,57.90
2023-09-24T09:28:28.024Z,57.40
2023-09-24T09:30:59.077Z,56.90
2023-09-24T09:33:27.485Z,56.60
2023-09-24T09:35:55.347Z,56.20
2023-09-24T09:38:22.762Z,56.00
2023-09-24T09:40:54.750Z,55.70
2023-09-24T09:43:30.973Z,55.60
2023-09-24T09:45:58.873Z,55.30
2023-09-24T09:48:30.838Z,55.20
2023-09-24T09:50:59.875Z,55.00
2023-09-24T09:53:30.373Z,54.90
2023-09-24T09:55:57.754Z,54.70
2023-09-24T09:58:26.265Z,54.50
2023-09-24T10:00:55.511Z,54.40
2023-09-24T10:03:23.274Z,54.30
2023-09-24T10:05:51.180Z,54.20
2023-09-24T10:08:38.246Z,54.10
2023-09-24T10:11:05.565Z,53.90
2023-09-24T10:13:49.391Z,54.40
2023-09-24T10:16:36.925Z,53.70
2023-09-24T10:19:06.124Z,53.70
2023-09-24T10:21:37.441Z,53.50
2023-09-24T10:24:29.941Z,53.50
2023-09-24T10:27:10.302Z,53.40
2023-09-24T10:29:58.861Z,53.30
2023-09-24T10:32:26.876Z,53.20
2023-09-24T10:35:13.896Z,53.20
2023-09-24T10:37:57.119Z,53.10
2023-09-24T10:40:27.916Z,62.10
2023-09-24T10:43:11.440Z,46.10
2023-09-24T10:45:38.611Z,45.00
2023-09-24T10:48:05.821Z,45.70
2023-09-24T10:50:32.897Z,45.80
2023-09-24T10:53:03.951Z,46.60
2023-09-24T10:55:41.379Z,47.20
2023-09-24T10:58:15.531Z,48.10
2023-09-24T11:00:46.508Z,48.20
2023-09-24T11:03:15.386Z,49.30
2023-09-24T11:05:44.901Z,49.50
2023-09-24T11:08:13.831Z,49.40
2023-09-24T11:10:40.828Z,50.50
2023-09-24T11:13:08.318Z,50.30
2023-09-24T11:15:36.495Z,50.50
2023-09-24T11:18:04.124Z,52.50
2023-09-24T11:20:32.687Z,53.10
2023-09-24T11:23:04.240Z,54.00
2023-09-24T11:25:32.204Z,53.30
2023-09-24T11:28:00.617Z,53.90
2023-09-24T11:30:42.301Z,54.70
2023-09-24T11:33:14.143Z,53.80
2023-09-24T11:35:41.897Z,55.30
2023-09-24T11:38:09.243Z,53.50
2023-09-24T11:40:37.915Z,53.00
2023-09-24T11:43:06.295Z,53.50
2023-09-24T11:45:54.788Z,52.80
2023-09-24T11:48:23.033Z,53.50
2023-09-24T11:50:51.031Z,55.00
2023-09-24T11:53:21.120Z,54.70
2023-09-24T11:55:49.829Z,54.80
2023-09-24T11:58:19.079Z,54.00
2023-09-24T12:00:46.218Z,54.60
2023-09-24T12:03:13.745Z,53.90
2023-09-24T12:05:41.819Z,53.60
2023-09-24T12:08:09.439Z,54.00
2023-09-24T12:10:39.592Z,54.20
2023-09-24T12:13:06.815Z,53.40
2023-09-24T12:15:34.262Z,54.90
2023-09-24T12:18:03.051Z,54.40
2023-09-24T12:20:30.141Z,54.80
2023-09-24T12:22:58.479Z,56.00
2023-09-24T12:25:25.534Z,55.60
2023-09-24T12:27:52.496Z,55.40
2023-09-24T12:30:19.549Z,55.40
2023-09-24T12:32:46.885Z,54.60
2023-09-24T12:35:14.039Z,55.80
2023-09-24T12:37:41.739Z,54.90
2023-09-24T12:40:10.080Z,55.30
2023-09-24T12:42:37.980Z,55.30
2023-09-24T12:45:05.881Z,55.60
2023-09-24T12:47:34.308Z,56.10
2023-09-24T12:50:02.345Z,55.20
2023-09-24T12:52:33.610Z,56.40
2023-09-24T12:55:00.918Z,54.70
2023-09-24T12:57:27.945Z,54.60
2023-09-24T12:59:55.115Z,56.40
2023-09-24T13:02:22.362Z,55.70
2023-09-24T13:04:49.554Z,55.40
2023-09-24T13:07:16.586Z,55.30
2023-09-24T13:09:43.683Z,55.10
2023-09-24T13:12:12.504Z,54.70
2023-09-24T13:14:39.725Z,55.30
2023-09-24T13:17:06.703Z,55.30
2023-09-24T13:19:33.734Z,55.20
2023-09-24T13:22:00.864Z,56.20
2023-09-24T13:24:27.924Z,56.30
2023-09-24T13:26:54.935Z,55.20
2023-09-24T13:29:24.865Z,55.20
2023-09-24T13:31:52.131Z,55.00
2023-09-24T13:34:19.196Z,54.40
2023-09-24T13:36:46.170Z,54.60
2023-09-24T13:39:13.167Z,55.10
2023-09-24T13:41:40.320Z,56.40
2023-09-24T13:44:07.513Z,55.40
2023-09-24T13:46:34.982Z,55.30
2023-09-24T13:49:05.486Z,56.30
2023-09-24T13:51:36.841Z,56.60
2023-09-24T13:54:04.383Z,54.90
2023-09-24T13:56:31.477Z,55.30
2023-09-24T13:58:58.499Z,56.30
2023-09-24T14:01:25.579Z,54.90
2023-09-24T14:03:55.856Z,54.80
2023-09-24T14:06:23.054Z,63.40
2023-09-24T14:09:09.948Z,73.10
2023-09-24T14:11:56.863Z,77.80
2023-09-24T14:14:23.896Z,80.10
2023-09-24T14:16:51.220Z,80.30
2023-09-24T14:19:18.382Z,80.20
2023-09-24T14:21:45.563Z,79.80
2023-09-24T14:24:12.620Z,79.50
2023-09-24T14:26:41.120Z,79.70
2023-09-24T14:29:10.834Z,79.00
2023-09-24T14:31:37.948Z,78.60
2023-09-24T14:34:05.124Z,78.40
2023-09-24T14:36:32.111Z,78.00
2023-09-24T14:39:04.095Z,77.80
2023-09-24T14:41:32.536Z,77.70
2023-09-24T14:44:01.181Z,77.30
2023-09-24T14:46:29.381Z,77.20
2023-09-24T14:48:56.516Z,77.10
2023-09-24T14:51:26.692Z,77.00
2023-09-24T14:54:00.098Z,76.90
2023-09-24T14:56:27.994Z,76.70
2023-09-24T14:58:55.060Z,76.70
2023-09-24T15:01:22.190Z,76.70
2023-09-24T15:03:52.192Z,76.60
2023-09-24T15:06:19.455Z,76.50
2023-09-24T15:08:46.534Z,76.30
2023-09-24T15:11:13.521Z,76.20
2023-09-24T15:13:43.585Z,76.20
2023-09-24T15:16:10.737Z,75.90
2023-09-24T15:18:37.914Z,75.80
2023-09-24T15:21:12.081Z,75.60
2023-09-24T15:23:39.054Z,75.20
2023-09-24T15:26:07.236Z,75.10
2023-09-24T15:28:34.923Z,75.00
2023-09-24T15:31:01.952Z,74.60
2023-09-24T15:33:29.832Z,74.50
2023-09-24T15:35:56.879Z,73.90
2023-09-24T15:38:24.099Z,73.90
2023-09-24T15:40:53.800Z,73.60
2023-09-24T15:43:20.849Z,73.10
2023-09-24T15:45:48.915Z,72.80
2023-09-24T15:48:16.261Z,73.40
2023-09-24T15:50:47.595Z,73.20
2023-09-24T15:53:15.355Z,72.60
2023-09-24T15:55:44.839Z,72.60
2023-09-24T15:58:12.390Z,72.60
2023-09-24T16:00:39.900Z,72.50
2023-09-24T16:03:07.017Z,72.30
2023-09-24T16:05:36.439Z,72.10
2023-09-24T16:08:03.637Z,71.90
2023-09-24T16:10:31.535Z,71.80
2023-09-24T16:12:58.774Z,71.70
2023-09-24T16:15:26.088Z,71.30
2023-09-24T16:17:53.627Z,71.00
2023-09-24T16:20:20.720Z,70.70
2023-09-24T16:22:48.559Z,70.70
2023-09-24T16:25:15.598Z,70.40
2023-09-24T16:27:42.646Z,70.30
2023-09-24T16:30:09.994Z,69.90
2023-09-24T16:32:37.202Z,69.60
2023-09-24T16:35:04.418Z,69.30
2023-09-24T16:37:33.929Z,68.70
2023-09-24T16:40:01.561Z,67.90
2023-09-24T16:42:28.734Z,67.50
2023-09-24T16:44:56.605Z,67.00
2023-09-24T16:47:24.589Z,66.10
2023-09-24T16:49:53.954Z,65.40
2023-09-24T16:52:21.059Z,64.60
2023-09-24T16:54:48.060Z,63.90
2023-09-24T16:57:15.180Z,63.30
2023-09-24T16:59:42.408Z,62.90
2023-09-24T17:02:09.492Z,62.50
2023-09-24T17:04:37.771Z,62.00
2023-09-24T17:07:05.064Z,61.60
2023-09-24T17:09:32.181Z,61.40
2023-09-24T17:11:59.340Z,61.00
2023-09-24T17:14:26.325Z,60.80
2023-09-24T17:16:54.328Z,60.60
2023-09-24T17:19:23.934Z,60.50
2023-09-24T17:21:51.081Z,60.20
2023-09-24T17:24:24.373Z,60.10
2023-09-24T17:26:51.706Z,60.00
2023-09-24T17:29:20.861Z,59.90
2023-09-24T17:31:48.986Z,59.70
2023-09-24T17:34:17.543Z,59.60
2023-09-24T17:36:45.422Z,59.50
2023-09-24T17:39:14.290Z,59.50
2023-09-24T17:41:43.803Z,59.30
2023-09-24T17:44:12.182Z,59.20
2023-09-24T17:46:39.345Z,59.20
2023-09-24T17:49:06.450Z,59.20
2023-09-24T17:51:33.702Z,59.00
2023-09-24T17:54:00.880Z,59.00
2023-09-24T17:56:27.963Z,58.90
2023-09-24T17:58:55.539Z,58.80
2023-09-24T18:01:26.663Z,58.80
2023-09-24T18:03:54.601Z,58.80
2023-09-24T18:06:22.483Z,58.70
2023-09-24T18:08:49.689Z,58.60
2023-09-24T18:11:18.561Z,58.50
2023-09-24T18:13:48.912Z,58.50
2023-09-24T18:16:16.548Z,58.40
2023-09-24T18:18:43.594Z,58.30
2023-09-24T18:21:10.998Z,58.30
2023-09-24T18:23:38.008Z,58.30
2023-09-24T18:26:05.119Z,58.20
2023-09-24T18:28:32.454Z,58.20
2023-09-24T18:31:01.197Z,58.20
2023-09-24T18:33:29.529Z,58.10
2023-09-24T18:35:57.737Z,58.00
2023-09-24T18:38:29.054Z,58.00
2023-09-24T18:40:56.785Z,58.00
2023-09-24T18:43:27.089Z,58.00
2023-09-24T18:45:55.401Z,57.90
2023-09-24T18:48:22.837Z,57.80
2023-09-24T18:50:53.266Z,57.80
2023-09-24T18:53:21.193Z,57.80
2023-09-24T18:55:48.917Z,57.80
2023-09-24T18:58:15.867Z,57.80
2023-09-24T19:00:42.914Z,57.80
2023-09-24T19:03:10.036Z,57.80
2023-09-24T19:05:37.600Z,57.70
2023-09-24T19:08:04.784Z,57.80
2023-09-24T19:10:34.828Z,57.70
2023-09-24T19:13:01.965Z,58.20
2023-09-24T19:15:29.001Z,57.60
2023-09-24T19:17:56.381Z,58.10
2023-09-24T19:20:23.461Z,57.50
2023-09-24T19:22:50.521Z,57.40
2023-09-24T19:25:17.775Z,57.40
2023-09-24T19:27:44.716Z,57.40
2023-09-24T19:30:12.416Z,57.40
2023-09-24T19:32:39.405Z,57.40
2023-09-24T19:35:06.658Z,57.40
2023-09-24T19:37:33.662Z,57.40
2023-09-24T19:40:00.679Z,57.30
2023-09-24T19:42:27.772Z,57.30
2023-09-24T19:44:54.862Z,57.30
2023-09-24T19:47:22.084Z,57.30
2023-09-24T19:49:49.234Z,57.30
2023-09-24T19:52:16.279Z,57.20
2023-09-24T19:54:44.454Z,57.20
2023-09-24T19:57:11.755Z,57.20
2023-09-24T19:59:38.712Z,57.20
2023-09-24T20:02:05.980Z,57.20
2023-09-24T20:04:33.186Z,57.20
2023-09-24T20:07:01.984Z,57.20
2023-09-24T20:09:29.367Z,57.20
2023-09-24T20:11:56.598Z,57.10
2023-09-24T20:14:24.105Z,57.10
2023-09-24T20:16:51.113Z,57.10
2023-09-24T20:19:18.240Z,57.10
2023-09-24T20:21:45.352Z,57.10
2023-09-24T20:24:14.291Z,57.10
2023-09-24T20:26:43.597Z,57.10
2023-09-24T20:29:10.845Z,57.10
2023-09-24T20:31:38.355Z,57.10
2023-09-24T20:34:06.147Z,57.00
2023-09-24T20:36:34.021Z,57.00
2023-09-24T20:39:07.888Z,57.00
2023-09-24T20:41:36.029Z,56.90
2023-09-24T20:44:03.327Z,56.90
2023-09-24T20:46:34.923Z,56.80
2023-09-24T20:49:02.287Z,56.80
2023-09-24T20:51:29.437Z,56.80
2023-09-24T20:53:56.573Z,56.80
2023-09-24T20:56:23.661Z,56.90
2023-09-24T20:58:51.062Z,56.90
2023-09-24T21:01:19.710Z,56.80
2023-09-24T21:03:47.271Z,56.90
2023-09-24T21:06:14.864Z,56.80
2023-09-24T21:08:42.226Z,56.80
2023-09-24T21:11:09.440Z,56.80
2023-09-24T21:13:36.592Z,56.80
2023-09-24T21:16:03.691Z,56.80
2023-09-24T21:18:30.911Z,56.80
2023-09-24T21:20:58.070Z,56.80
2023-09-24T21:23:25.553Z,56.80
2023-09-24T21:26:00.217Z,56.80
2023-09-24T21:28:27.146Z,56.80
2023-09-24T21:31:01.721Z,56.80
2023-09-24T21:33:28.841Z,56.80
2023-09-24T21:35:56.034Z,56.70
2023-09-24T21:38:23.055Z,56.70
2023-09-24T21:40:50.089Z,56.70
2023-09-24T21:43:17.090Z,56.70
2023-09-24T21:45:44.076Z,56.70
2023-09-24T21:48:11.237Z,56.70
2023-09-24T21:50:38.278Z,56.70
2023-09-24T21:53:05.283Z,56.70
2023-09-24T21:55:32.232Z,56.70
2023-09-24T21:57:59.251Z,56.70
2023-09-24T22:00:27.217Z,56.60
2023-09-24T22:05:21.469Z,56.50
2023-09-24T22:07:50.780Z,56.40
2023-09-24T22:10:18.503Z,56.50
2023-09-24T22:12:46.081Z,56.50
2023-09-24T22:15:13.106Z,56.50
2023-09-24T22:17:40.478Z,56.50
2023-09-24T22:20:07.788Z,56.60
2023-09-24T22:22:34.721Z,56.50
2023-09-24T22:25:01.739Z,56.50
2023-09-24T22:27:28.872Z,56.50
2023-09-24T22:29:55.881Z,56.50
2023-09-24T22:32:22.876Z,56.50
2023-09-24T22:34:49.855Z,56.50
2023-09-24T22:37:16.815Z,56.50
2023-09-24T22:39:43.962Z,56.50
2023-09-24T22:42:11.108Z,56.40
2023-09-24T22:44:38.079Z,56.50
2023-09-24T22:47:05.072Z,56.40
2023-09-24T22:49:32.088Z,56.40
2023-09-24T22:51:59.030Z,56.40
2023-09-24T22:54:26.158Z,56.40
2023-09-24T22:56:53.270Z,56.40
2023-09-24T22:59:20.201Z,56.40
2023-09-24T23:01:47.539Z,56.40
2023-09-24T23:04:14.913Z,56.40
2023-09-24T23:06:42.743Z,56.40
2023-09-24T23:09:09.841Z,56.40
2023-09-24T23:11:37.540Z,56.40
2023-09-24T23:14:04.745Z,56.40
2023-09-24T23:16:31.776Z,56.30
2023-09-24T23:18:59.848Z,56.30
2023-09-24T23:21:26.815Z,56.20
2023-09-24T23:23:54.060Z,56.20
2023-09-24T23:26:21.050Z,56.10
2023-09-24T23:28:51.482Z,56.10
2023-09-24T23:31:18.740Z,56.00
2023-09-24T23:33:47.357Z,56.30
2023-09-24T23:36:14.583Z,56.10
2023-09-24T23:38:42.226Z,56.00
2023-09-24T23:41:09.316Z,56.10
2023-09-24T23:43:36.322Z,56.00
2023-09-24T23:46:04.610Z,56.10
2023-09-24T23:48:34.773Z,56.10
2023-09-24T23:51:02.648Z,56.10
2023-09-24T23:53:29.694Z,56.10
2023-09-24T23:55:56.844Z,56.10
2023-09-24T23:58:24.390Z,56.10
